createdAt,value
2019-05-17T00:02:08.703Z,41.80
2019-05-17T00:04:38.509Z,43.45
2019-05-17T00:07:08.181Z,40.10
2019-05-17T00:09:37.650Z,44.18
2019-05-17T00:12:07.615Z,44.67
2019-05-17T00:14:37.466Z,46.10
2019-05-17T00:17:07.275Z,43.65
2019-05-17T00:19:37.052Z,47.75
2019-05-17T00:22:07.619Z,45.92
2019-05-17T00:24:37.234Z,45.75
2019-05-17T00:27:07.911Z,43.68
2019-05-17T00:29:37.677Z,42.38
2019-05-17T00:32:07.246Z,40.38
2019-05-17T00:34:37.692Z,43.75
2019-05-17T00:37:08.646Z,42.95
2019-05-17T00:39:38.184Z,41.92
2019-05-17T00:42:07.682Z,42.35
2019-05-17T00:44:37.149Z,38.45
2019-05-17T00:47:06.765Z,40.83
2019-05-17T00:49:37.361Z,40.90
2019-05-17T00:52:07.434Z,40.23
2019-05-17T00:54:36.862Z,45.33
2019-05-17T00:57:07.466Z,38.65
2019-05-17T00:59:37.190Z,40.75
2019-05-17T01:02:07.158Z,40.03
2019-05-17T01:04:37.048Z,39.38
2019-05-17T01:07:07.171Z,42.90
2019-05-17T01:09:36.846Z,43.05
2019-05-17T01:12:07.123Z,43.73
2019-05-17T01:14:37.386Z,37.75
2019-05-17T01:17:07.414Z,42.88
2019-05-17T01:19:37.323Z,39.05
2019-05-17T01:22:07.477Z,36.13
2019-05-17T01:24:37.246Z,38.45
2019-05-17T01:27:06.797Z,30.30
2019-05-17T01:29:36.520Z,30.20
2019-05-17T01:32:06.824Z,27.98
2019-05-17T01:34:37.685Z,26.70
2019-05-17T01:37:07.331Z,25.75
2019-05-17T01:39:37.628Z,25.50
2019-05-17T01:42:08.635Z,22.05
2019-05-17T01:44:38.083Z,18.90
2019-05-17T01:47:08.054Z,21.07
2019-05-17T01:49:37.546Z,21.62
2019-05-17T01:52:07.587Z,20.82
2019-05-17T01:54:37.108Z,20.40
2019-05-17T01:57:07.288Z,20.65
2019-05-17T01:59:37.392Z,21.75
2019-05-17T02:02:16.427Z,17.37
2019-05-17T02:04:46.774Z,19.12
2019-05-17T02:07:17.263Z,21.42
2019-05-17T02:09:48.247Z,20.95
2019-05-17T02:12:18.795Z,19.45
2019-05-17T02:14:48.323Z,22.02
2019-05-17T02:17:17.790Z,20.15
2019-05-17T02:19:47.246Z,21.82
2019-05-17T02:22:16.930Z,19.92
2019-05-17T02:24:46.540Z,26.02
2019-05-17T02:27:16.138Z,20.17
2019-05-17T02:29:45.696Z,20.57
2019-05-17T02:32:15.534Z,19.95
2019-05-17T02:34:45.100Z,21.95
2019-05-17T02:37:14.669Z,21.90
2019-05-17T02:39:58.027Z,21.50
2019-05-17T02:42:15.421Z,16.75
2019-05-17T02:44:44.960Z,19.57
2019-05-17T02:47:14.465Z,19.12
2019-05-17T02:49:44.219Z,17.50
2019-05-17T02:52:13.897Z,20.40
2019-05-17T02:54:43.834Z,18.60
2019-05-17T02:57:14.182Z,21.12
2019-05-17T02:59:44.408Z,19.67
2019-05-17T03:02:13.980Z,18.65
2019-05-17T03:04:43.553Z,18.45
2019-05-17T03:07:13.790Z,20.05
2019-05-17T03:09:43.432Z,19.65
2019-05-17T03:12:13.286Z,18.73
2019-05-17T03:14:43.305Z,20.05
2019-05-17T03:17:14.035Z,19.40
2019-05-17T03:19:43.915Z,20.95
2019-05-17T03:22:13.513Z,20.90
2019-05-17T03:24:43.883Z,19.65
2019-05-17T03:27:13.844Z,20.77
2019-05-17T03:29:43.571Z,19.80
2019-05-17T03:32:17.361Z,18.50
2019-05-17T03:34:47.500Z,18.67
2019-05-17T03:37:17.042Z,16.85
2019-05-17T03:39:46.560Z,18.20
2019-05-17T03:42:16.048Z,17.70
2019-05-17T03:44:46.683Z,18.00
2019-05-17T03:47:16.557Z,17.48
2019-05-17T03:49:46.083Z,19.32
2019-05-17T03:52:15.664Z,19.60
2019-05-17T03:54:45.135Z,20.05
2019-05-17T03:57:15.049Z,18.65
2019-05-17T03:59:44.983Z,21.60
2019-05-17T04:02:14.580Z,19.90
2019-05-17T04:04:44.106Z,21.57
2019-05-17T04:07:13.906Z,21.85
2019-05-17T04:09:44.454Z,20.88
2019-05-17T04:12:14.010Z,21.48
2019-05-17T04:14:43.506Z,23.65
2019-05-17T04:17:13.477Z,25.77
2019-05-17T04:19:43.829Z,24.50
2019-05-17T04:22:14.103Z,24.55
2019-05-17T04:24:44.061Z,23.95
2019-05-17T04:27:13.891Z,24.52
2019-05-17T04:29:44.342Z,25.45
2019-05-17T04:32:14.899Z,24.87
2019-05-17T04:34:44.464Z,23.92
2019-05-17T04:37:14.023Z,24.67
2019-05-17T04:39:43.834Z,25.27
2019-05-17T04:42:13.804Z,25.40
2019-05-17T04:44:43.506Z,24.95
2019-05-17T04:47:13.520Z,25.15
2019-05-17T04:49:44.241Z,25.37
2019-05-17T04:52:14.089Z,23.90
2019-05-17T04:54:43.626Z,25.02
2019-05-17T04:57:14.671Z,23.12
2019-05-17T04:59:44.496Z,22.37
2019-05-17T05:02:14.434Z,23.10
2019-05-17T05:04:44.071Z,23.70
2019-05-17T05:07:14.046Z,20.43
2019-05-17T05:09:43.607Z,22.58
2019-05-17T05:12:13.449Z,19.42
2019-05-17T05:14:43.305Z,23.50
2019-05-17T05:17:13.015Z,21.25
2019-05-17T05:19:42.589Z,20.40
2019-05-17T05:22:13.560Z,22.87
2019-05-17T05:24:43.295Z,22.87
2019-05-17T05:27:13.151Z,21.05
2019-05-17T05:29:42.964Z,21.07
2019-05-17T05:32:12.467Z,23.73
2019-05-17T05:34:42.971Z,22.07
2019-05-17T05:37:13.314Z,21.37
2019-05-17T05:39:42.841Z,23.05
2019-05-17T05:42:14.069Z,21.73
2019-05-17T05:44:43.743Z,21.90
2019-05-17T05:47:13.228Z,20.12
2019-05-17T05:49:42.727Z,22.00
2019-05-17T05:52:12.646Z,22.62
2019-05-17T05:54:42.437Z,21.77
2019-05-17T05:57:12.599Z,21.48
2019-05-17T05:59:42.739Z,24.82
2019-05-17T06:02:12.499Z,22.55
2019-05-17T06:04:42.523Z,25.32
2019-05-17T06:07:12.875Z,23.32
2019-05-17T06:09:42.628Z,23.87
2019-05-17T06:12:22.887Z,22.85
2019-05-17T06:14:44.327Z,24.02
2019-05-17T06:17:13.908Z,24.47
2019-05-17T06:19:43.746Z,22.62
2019-05-17T06:22:13.218Z,22.87
2019-05-17T06:24:43.415Z,23.00
2019-05-17T06:27:12.910Z,25.68
2019-05-17T06:29:43.228Z,27.82
2019-05-17T06:32:12.688Z,23.45
2019-05-17T06:34:42.431Z,26.65
2019-05-17T06:37:12.958Z,28.45
2019-05-17T06:39:43.072Z,24.07
2019-05-17T06:42:12.610Z,26.65
2019-05-17T06:44:42.117Z,25.95
2019-05-17T06:47:12.076Z,26.17
2019-05-17T06:49:42.429Z,27.65
2019-05-17T06:52:12.096Z,29.40
2019-05-17T06:54:41.868Z,29.57
2019-05-17T06:57:12.889Z,28.40
2019-05-17T06:59:42.392Z,28.27
2019-05-17T07:02:12.232Z,29.85
2019-05-17T07:04:41.696Z,24.72
2019-05-17T07:07:30.461Z,26.12
2019-05-17T07:10:00.927Z,27.17
2019-05-17T07:12:30.889Z,26.70
2019-05-17T07:15:01.764Z,27.05
2019-05-17T07:17:31.596Z,26.97
2019-05-17T07:20:01.087Z,27.80
2019-05-17T07:22:30.702Z,27.10
2019-05-17T07:25:00.213Z,27.10
2019-05-17T07:27:38.738Z,29.27
2019-05-17T07:30:00.864Z,26.90
2019-05-17T07:32:31.587Z,31.60
2019-05-17T07:35:01.055Z,29.20
2019-05-17T07:37:31.628Z,26.95
2019-05-17T07:40:05.121Z,26.62
2019-05-17T07:42:32.293Z,30.12
2019-05-17T07:45:01.826Z,28.47
2019-05-17T07:47:31.392Z,27.58
2019-05-17T07:50:01.381Z,29.15
2019-05-17T07:52:31.994Z,32.83
2019-05-17T07:55:02.574Z,28.27
2019-05-17T07:57:33.436Z,30.60
2019-05-17T08:00:03.600Z,29.80
2019-05-17T08:02:33.219Z,30.50
2019-05-17T08:05:02.786Z,29.82
2019-05-17T08:07:32.317Z,32.78
2019-05-17T08:10:01.844Z,32.23
2019-05-17T08:12:31.289Z,30.05
2019-05-17T08:15:00.851Z,33.95
2019-05-17T08:17:30.600Z,31.65
2019-05-17T08:20:01.311Z,32.60
2019-05-17T08:22:31.139Z,29.72
2019-05-17T08:25:00.667Z,28.50
2019-05-17T08:27:30.150Z,25.88
2019-05-17T08:29:59.997Z,27.10
2019-05-17T08:32:31.577Z,26.95
2019-05-17T08:35:01.233Z,24.82
2019-05-17T08:37:30.718Z,25.02
2019-05-17T08:40:00.348Z,26.20
2019-05-17T08:42:30.381Z,22.80
2019-05-17T08:45:00.849Z,24.32
2019-05-17T08:47:30.906Z,24.23
2019-05-17T08:50:00.723Z,21.85
2019-05-17T08:52:30.255Z,21.42
2019-05-17T08:55:00.329Z,24.70
2019-05-17T08:57:30.550Z,22.10
2019-05-17T09:00:00.817Z,23.10
2019-05-17T09:02:32.666Z,23.98
2019-05-17T09:05:02.233Z,22.60
2019-05-17T09:07:31.719Z,22.07
2019-05-17T09:10:01.977Z,21.10
2019-05-17T09:12:32.719Z,21.00
2019-05-17T09:15:02.180Z,18.52
2019-05-17T09:17:32.854Z,16.77
2019-05-17T09:20:02.488Z,20.85
2019-05-17T09:22:31.969Z,18.07
2019-05-17T09:25:01.490Z,17.70
2019-05-17T09:27:31.046Z,18.17
2019-05-17T09:30:00.546Z,20.05
2019-05-17T09:32:30.074Z,19.35
2019-05-17T09:35:02.336Z,19.60
2019-05-17T09:37:31.791Z,20.82
2019-05-17T09:40:01.311Z,20.05
2019-05-17T09:42:30.827Z,20.35
2019-05-17T09:45:00.565Z,19.52
2019-05-17T09:47:30.292Z,18.40
2019-05-17T09:50:00.425Z,20.15
2019-05-17T09:52:30.222Z,19.52
2019-05-17T09:55:00.423Z,20.08
2019-05-17T09:57:31.643Z,19.42
2019-05-17T10:00:01.191Z,20.60
2019-05-17T10:02:32.357Z,22.00
2019-05-17T10:05:01.860Z,22.80
2019-05-17T10:07:31.468Z,22.82
2019-05-17T10:10:01.018Z,21.52
2019-05-17T10:12:30.722Z,21.15
2019-05-17T10:15:00.630Z,21.95
2019-05-17T10:17:30.372Z,21.07
2019-05-17T10:20:00.134Z,20.40
2019-05-17T10:22:30.418Z,16.95
2019-05-17T10:25:01.079Z,18.30
2019-05-17T10:27:31.504Z,19.32
2019-05-17T10:30:01.013Z,16.95
2019-05-17T10:32:31.138Z,19.90
2019-05-17T10:35:00.746Z,16.77
2019-05-17T10:37:30.461Z,17.42
2019-05-17T10:40:00.959Z,15.40
2019-05-17T10:42:30.767Z,16.37
2019-05-17T10:45:00.286Z,15.72
2019-05-17T10:47:30.291Z,17.12
2019-05-17T10:50:00.904Z,15.60
2019-05-17T10:52:30.365Z,16.23
2019-05-17T10:55:00.078Z,14.60
2019-05-17T10:57:30.785Z,13.45
2019-05-17T11:00:00.293Z,13.62
2019-05-17T11:02:30.400Z,12.37
2019-05-17T11:05:00.816Z,12.93
2019-05-17T11:07:30.699Z,13.18
2019-05-17T11:10:00.826Z,13.48
2019-05-17T11:12:30.388Z,13.72
2019-05-17T11:15:10.283Z,12.88
2019-05-17T11:17:31.437Z,14.10
2019-05-17T11:20:00.945Z,11.65
2019-05-17T11:22:30.595Z,13.78
2019-05-17T11:25:00.538Z,15.25
2019-05-17T11:27:30.152Z,13.93
2019-05-17T11:29:59.971Z,14.25
2019-05-17T11:32:29.467Z,13.68
2019-05-17T11:34:58.939Z,14.20
2019-05-17T11:37:28.845Z,14.15
2019-05-17T11:39:58.322Z,15.30
2019-05-17T11:42:29.138Z,17.50
2019-05-17T11:44:58.642Z,17.12
2019-05-17T11:47:28.149Z,18.87
2019-05-17T11:49:57.968Z,19.17
2019-05-17T11:52:27.470Z,16.55
2019-05-17T11:54:57.384Z,13.22
2019-05-17T11:57:26.951Z,13.18
2019-05-17T11:59:56.818Z,10.32
2019-05-17T12:02:26.386Z,9.18
2019-05-17T12:04:55.874Z,15.13
2019-05-17T12:07:25.459Z,11.50
2019-05-17T12:09:54.929Z,10.65
2019-05-17T12:12:24.472Z,11.55
2019-05-17T12:14:53.982Z,10.50
2019-05-17T12:17:23.436Z,11.53
2019-05-17T12:19:53.304Z,12.13
2019-05-17T12:22:22.783Z,10.63
2019-05-17T12:24:52.286Z,14.53
2019-05-17T12:27:21.816Z,17.12
2019-05-17T12:29:52.270Z,14.18
2019-05-17T12:32:21.848Z,13.20
2019-05-17T12:34:51.359Z,12.25
2019-05-17T12:37:20.938Z,12.23
2019-05-17T12:39:50.432Z,12.88
2019-05-17T12:42:20.265Z,11.93
2019-05-17T12:44:49.822Z,13.40
2019-05-17T12:47:19.594Z,16.87
2019-05-17T12:49:49.078Z,13.50
2019-05-17T12:52:18.579Z,14.80
2019-05-17T12:54:48.111Z,13.40
2019-05-17T12:57:17.917Z,10.10
2019-05-17T12:59:47.440Z,10.28
2019-05-17T13:02:17.970Z,12.10
2019-05-17T13:04:47.457Z,13.85
2019-05-17T13:07:16.960Z,12.90
2019-05-17T13:09:46.463Z,13.70
2019-05-17T13:12:15.932Z,14.15
2019-05-17T13:14:45.440Z,13.83
2019-05-17T13:17:14.960Z,14.93
2019-05-17T13:19:44.432Z,14.78
2019-05-17T13:22:14.321Z,13.13
2019-05-17T13:24:43.806Z,13.00
2019-05-17T13:27:13.458Z,13.03
2019-05-17T13:29:42.977Z,13.85
2019-05-17T13:32:12.963Z,14.03
2019-05-17T13:34:42.540Z,16.25
2019-05-17T13:37:12.003Z,15.90
2019-05-17T13:39:41.479Z,15.95
2019-05-17T13:42:10.990Z,15.90
2019-05-17T13:44:40.682Z,17.25
2019-05-17T13:47:10.835Z,17.95
2019-05-17T13:49:40.385Z,17.10
2019-05-17T13:52:09.916Z,16.00
2019-05-17T13:54:39.419Z,15.28
2019-05-17T13:57:11.366Z,13.10
2019-05-17T13:59:40.263Z,12.63
2019-05-17T14:02:09.731Z,12.50
2019-05-17T14:04:39.236Z,11.68
2019-05-17T14:07:08.800Z,11.80
2019-05-17T14:09:38.303Z,10.03
2019-05-17T14:12:07.909Z,10.85
2019-05-17T14:14:37.437Z,9.83
2019-05-17T14:17:06.973Z,9.98
2019-05-17T14:19:36.435Z,11.43
2019-05-17T14:22:06.024Z,10.63
2019-05-17T14:24:35.538Z,11.08
2019-05-17T14:27:05.231Z,9.80
2019-05-17T14:29:35.089Z,10.53
2019-05-17T14:32:04.705Z,11.30
2019-05-17T14:34:34.242Z,12.40
2019-05-17T14:37:07.385Z,11.85
2019-05-17T14:39:35.211Z,13.72
2019-05-17T14:42:05.179Z,13.00
2019-05-17T14:44:34.647Z,14.00
2019-05-17T14:47:04.611Z,13.35
2019-05-17T14:49:34.076Z,12.75
2019-05-17T14:52:03.654Z,13.40
2019-05-17T14:54:33.114Z,13.35
2019-05-17T14:57:02.631Z,13.00
2019-05-17T14:59:32.098Z,13.58
2019-05-17T15:02:01.958Z,15.28
2019-05-17T15:04:31.513Z,15.03
2019-05-17T15:07:01.047Z,14.75
2019-05-17T15:09:31.706Z,14.75
2019-05-17T15:12:01.384Z,14.78
2019-05-17T15:14:30.836Z,15.80
2019-05-17T15:17:00.410Z,14.50
2019-05-17T15:19:29.857Z,15.88
2019-05-17T15:21:59.361Z,14.80
2019-05-17T15:24:29.152Z,14.13
2019-05-17T15:27:05.385Z,14.30
2019-05-17T15:29:29.818Z,14.38
2019-05-17T15:31:59.467Z,14.70
2019-05-17T15:34:28.935Z,15.35
2019-05-17T15:36:58.454Z,14.55
2019-05-17T15:39:27.986Z,13.93
2019-05-17T15:41:57.627Z,15.13
2019-05-17T15:44:27.284Z,14.25
2019-05-17T15:46:56.799Z,14.80
2019-05-17T15:49:26.275Z,14.35
2019-05-17T15:51:55.784Z,15.80
2019-05-17T15:54:25.308Z,15.03
2019-05-17T15:56:54.887Z,15.95
2019-05-17T15:59:24.355Z,15.25
2019-05-17T16:01:53.871Z,15.35
2019-05-17T16:04:23.332Z,15.28
2019-05-17T16:06:52.959Z,16.50
2019-05-17T16:09:22.552Z,15.28
2019-05-17T16:11:52.080Z,15.05
2019-05-17T16:14:21.607Z,16.48
2019-05-17T16:16:51.637Z,16.42
2019-05-17T16:19:21.082Z,16.70
2019-05-17T16:21:50.834Z,17.52
2019-05-17T16:24:21.913Z,16.82
2019-05-17T16:26:51.424Z,16.45
2019-05-17T16:29:20.993Z,16.05
2019-05-17T16:31:50.462Z,16.60
2019-05-17T16:34:19.966Z,15.75
2019-05-17T16:36:49.486Z,17.23
2019-05-17T16:39:19.068Z,17.23
2019-05-17T16:41:48.882Z,15.85
2019-05-17T16:44:18.381Z,15.93
2019-05-17T16:46:47.937Z,16.97
2019-05-17T16:49:17.475Z,16.40
2019-05-17T16:51:46.970Z,15.85
2019-05-17T16:54:16.506Z,16.45
2019-05-17T16:56:47.416Z,16.52
2019-05-17T16:59:16.989Z,16.32
2019-05-17T17:01:46.493Z,15.28
2019-05-17T17:04:16.064Z,15.03
2019-05-17T17:06:45.530Z,15.75
2019-05-17T17:09:15.049Z,15.72
2019-05-17T17:11:45.796Z,15.53
2019-05-17T17:14:16.624Z,16.82
2019-05-17T17:16:46.092Z,17.55
2019-05-17T17:19:15.659Z,16.87
2019-05-17T17:21:45.098Z,17.30
2019-05-17T17:24:14.883Z,17.10
2019-05-17T17:26:44.699Z,17.87
2019-05-17T17:29:14.313Z,19.45
2019-05-17T17:31:43.772Z,18.55
2019-05-17T17:34:13.291Z,18.10
2019-05-17T17:36:42.741Z,17.57
2019-05-17T17:39:12.765Z,17.92
2019-05-17T17:41:43.452Z,17.50
2019-05-17T17:44:13.699Z,17.37
2019-05-17T17:46:44.265Z,17.67
2019-05-17T17:49:13.909Z,19.07
2019-05-17T17:51:43.504Z,18.05
2019-05-17T17:54:15.011Z,18.20
2019-05-17T17:56:44.588Z,18.77
2019-05-17T17:59:14.183Z,18.55
2019-05-17T18:01:43.736Z,20.45
2019-05-17T18:04:13.296Z,20.68
2019-05-17T18:06:42.748Z,19.27
2019-05-17T18:09:12.393Z,20.30
2019-05-17T18:11:42.270Z,23.73
2019-05-17T18:14:13.777Z,21.25
2019-05-17T18:16:43.005Z,21.65
2019-05-17T18:19:12.837Z,20.12
2019-05-17T18:21:42.305Z,21.12
2019-05-17T18:24:11.879Z,21.30
2019-05-17T18:26:42.303Z,23.65
2019-05-17T18:29:12.195Z,22.37
2019-05-17T18:31:42.026Z,21.77
2019-05-17T18:34:11.862Z,22.70
2019-05-17T18:36:41.492Z,24.87
2019-05-17T18:39:11.185Z,23.95
2019-05-17T18:41:40.835Z,22.13
2019-05-17T18:44:26.883Z,24.47
2019-05-17T18:46:44.521Z,23.38
2019-05-17T18:49:14.498Z,22.93
2019-05-17T18:51:44.685Z,21.82
2019-05-17T18:54:16.920Z,22.13
2019-05-17T18:56:47.081Z,20.30
2019-05-17T18:59:17.088Z,21.30
2019-05-17T19:01:47.268Z,19.82
2019-05-17T19:04:17.090Z,21.23
2019-05-17T19:06:47.590Z,19.80
2019-05-17T19:09:21.424Z,21.75
2019-05-17T19:11:51.547Z,20.02
2019-05-17T19:14:21.323Z,22.05
2019-05-17T19:16:51.136Z,22.58
2019-05-17T19:19:21.114Z,22.15
2019-05-17T19:21:51.597Z,23.10
2019-05-17T19:24:21.635Z,26.80
2019-05-17T19:26:51.709Z,27.67
2019-05-17T19:29:22.105Z,28.32
2019-05-17T19:31:52.152Z,30.77
2019-05-17T19:34:22.340Z,30.05
2019-05-17T19:36:52.290Z,29.30
2019-05-17T19:39:22.026Z,27.65
2019-05-17T19:41:51.936Z,26.80
2019-05-17T19:44:21.956Z,28.15
2019-05-17T19:46:51.962Z,28.92
2019-05-17T19:49:22.268Z,26.15
2019-05-17T19:51:52.802Z,27.98
2019-05-17T19:54:22.640Z,31.10
2019-05-17T19:56:53.131Z,28.77
2019-05-17T19:59:25.081Z,30.45
2019-05-17T20:01:55.245Z,27.32
2019-05-17T20:04:25.167Z,29.00
2019-05-17T20:06:55.800Z,31.82
2019-05-17T20:09:25.806Z,28.17
2019-05-17T20:11:56.379Z,29.18
2019-05-17T20:14:26.587Z,30.20
2019-05-17T20:16:57.540Z,27.45
2019-05-17T20:19:27.133Z,29.63
2019-05-17T20:21:57.515Z,28.65
2019-05-17T20:24:27.280Z,28.77
2019-05-17T20:26:57.785Z,28.35
2019-05-17T20:29:27.548Z,26.93
2019-05-17T20:31:57.616Z,26.02
2019-05-17T20:34:27.485Z,25.35
2019-05-17T20:36:57.338Z,24.70
2019-05-17T20:39:26.898Z,26.77
2019-05-17T20:41:57.598Z,25.52
2019-05-17T20:44:27.551Z,26.37
2019-05-17T20:46:57.820Z,26.73
2019-05-17T20:49:27.848Z,25.52
2019-05-17T20:51:57.921Z,24.57
2019-05-17T20:54:27.885Z,24.32
2019-05-17T20:56:57.684Z,28.77
2019-05-17T20:59:27.271Z,29.15
2019-05-17T21:01:58.552Z,26.07
2019-05-17T21:04:28.424Z,29.00
2019-05-17T21:06:58.007Z,31.00
2019-05-17T21:09:27.866Z,26.50
2019-05-17T21:11:57.993Z,27.40
2019-05-17T21:14:27.628Z,30.80
2019-05-17T21:16:57.675Z,30.45
2019-05-17T21:19:27.783Z,30.50
2019-05-17T21:21:58.288Z,27.70
2019-05-17T21:24:28.129Z,29.07
2019-05-17T21:26:57.925Z,28.12
2019-05-17T21:29:28.045Z,27.52
2019-05-17T21:31:58.186Z,28.83
2019-05-17T21:34:28.378Z,25.90
2019-05-17T21:36:59.207Z,27.48
2019-05-17T21:39:29.090Z,29.20
2019-05-17T21:41:59.658Z,27.65
2019-05-17T21:44:29.638Z,26.75
2019-05-17T21:47:04.811Z,27.37
2019-05-17T21:49:30.978Z,29.45
2019-05-17T21:52:01.678Z,29.00
2019-05-17T21:54:31.815Z,27.15
2019-05-17T21:57:01.814Z,27.65
2019-05-17T21:59:31.624Z,30.10
2019-05-17T22:02:01.803Z,27.17
2019-05-17T22:04:31.280Z,27.13
2019-05-17T22:07:00.893Z,30.52
2019-05-17T22:09:30.443Z,28.27
2019-05-17T22:12:01.709Z,27.05
2019-05-17T22:14:31.313Z,28.47
2019-05-17T22:17:00.879Z,29.30
2019-05-17T22:19:30.367Z,26.62
2019-05-17T22:22:00.231Z,28.10
2019-05-17T22:24:29.775Z,29.65
2019-05-17T22:26:59.657Z,28.30
2019-05-17T22:29:29.165Z,27.62
2019-05-17T22:31:58.703Z,29.37
2019-05-17T22:34:28.167Z,26.73
2019-05-17T22:36:57.673Z,30.90
2019-05-17T22:39:27.122Z,30.30
2019-05-17T22:41:56.647Z,28.12
2019-05-17T22:44:26.154Z,29.37
2019-05-17T22:46:55.695Z,30.45
2019-05-17T22:49:25.501Z,31.10
2019-05-17T22:51:55.414Z,32.10
2019-05-17T22:54:25.198Z,33.08
2019-05-17T22:56:54.768Z,30.88
2019-05-17T22:59:24.270Z,31.05
2019-05-17T23:01:53.743Z,30.02
2019-05-17T23:04:23.256Z,38.20
2019-05-17T23:06:52.765Z,31.60
2019-05-17T23:09:22.393Z,31.23
2019-05-17T23:11:52.194Z,32.25
2019-05-17T23:14:21.690Z,34.63
2019-05-17T23:16:52.186Z,34.03
2019-05-17T23:19:21.879Z,34.63
2019-05-17T23:21:51.346Z,33.35
2019-05-17T23:24:20.848Z,34.95
2019-05-17T23:26:50.313Z,32.00
2019-05-17T23:29:19.877Z,33.58
2019-05-17T23:31:49.437Z,36.42
2019-05-17T23:34:18.967Z,34.67
2019-05-17T23:36:48.472Z,36.05
2019-05-17T23:39:17.963Z,37.80
2019-05-17T23:41:47.809Z,34.23
2019-05-17T23:44:17.303Z,34.90
2019-05-17T23:46:46.763Z,33.80
2019-05-17T23:49:16.263Z,33.42
2019-05-17T23:51:45.759Z,37.08
2019-05-17T23:54:15.279Z,36.08
2019-05-17T23:56:44.735Z,34.92
2019-05-17T23:59:14.224Z,36.88
